LA3LJA-1 Osen NO current weather conditions

sailwx.info

Wind from 208 at 12 knots gusting 16

Air temperature 2.8° C
Dewpoint -0.7° C

Last reported at 2020-Jan-25 08:40 UTC.
Time now 2020-Jan-25 10:27 UTC

Location: N 64°20' E 010°25'.
View on Google Maps.

See reports from other nearby stations

  
Tides and Currents Weather Stations Pressure Air Temp Water Temp Dewpoint Dewpoint Depression Visibility Wind Speed Wind Dir Waves Ship Positions
date/time (UTC)wind fromknots sea level pressurealtimeterstation pressurevisibilityair tempwater tempwave heightnotes
2020-Jan-25 08:40 208 12 gusting 16 2.8
2020-Jan-25 08:30 209 11 gusting 15 2.8
2020-Jan-25 08:20 208 11 gusting 13 2.8
2020-Jan-25 07:20 208 10 gusting 13 2.2
2020-Jan-25 07:10 208 19 gusting 29 2.8
2020-Jan-25 07:00 208 21 gusting 30 3.3
2020-Jan-25 06:50 209 16 gusting 20 3.3
2020-Jan-25 06:40 208 16 gusting 20 3.3
2020-Jan-25 06:10 207 17 gusting 22 3.3
2020-Jan-25 06:00 208 15 gusting 20 3.3
2020-Jan-25 05:30 208 14 gusting 21 2.8
2020-Jan-25 05:10 208 13 gusting 21 2.8
2020-Jan-25 05:00 208 21 gusting 30 2.8
2020-Jan-25 04:40 208 14 gusting 21 3.3
2020-Jan-25 04:10 208 19 gusting 25 3.9
2020-Jan-25 03:50 208 13 gusting 21 2.8
2020-Jan-25 03:40 208 10 gusting 16 2.8
2020-Jan-25 03:30 208 14 gusting 20 2.8
2020-Jan-25 02:50 208 26 gusting 37 2.8
2020-Jan-25 02:40 208 21 gusting 27 3.3
2020-Jan-25 02:20 208 19 gusting 30 2.8
2020-Jan-25 01:30 208 14 gusting 25 2.2
2020-Jan-25 01:20 208 19 gusting 25 2.2
2020-Jan-25 00:40 207 23 gusting 36 2.2
2020-Jan-25 00:30 208 26 gusting 36 2.8
2020-Jan-25 00:20 208 25 gusting 37 2.8
2020-Jan-25 00:10 208 21 gusting 30 2.8
2020-Jan-24 23:10 208 22 gusting 30 2.8
2020-Jan-24 23:00 207 28 gusting 48 2.2
2020-Jan-24 22:40 208 27 gusting 41 2.8
2020-Jan-24 22:30 208 27 gusting 37 2.8
2020-Jan-24 22:20 207 28 gusting 38 2.8
2020-Jan-24 22:10 208 25 gusting 37 3.3
2020-Jan-24 22:00 208 25 gusting 35 3.3
2020-Jan-24 21:50 208 28 gusting 37 2.8
2020-Jan-24 21:10 208 26 gusting 43 2.8
2020-Jan-24 21:00 208 27 gusting 39 2.2
2020-Jan-24 20:50 208 31 gusting 44 1.7
2020-Jan-24 20:19 208 37 gusting 58 2.2
2020-Jan-24 20:09 208 33 gusting 46 3.9
2020-Jan-24 19:59 208 31 gusting 42 3.3
2020-Jan-24 19:09 208 32 gusting 46 2.8
2020-Jan-24 18:47 208 26 gusting 44 3.3
2020-Jan-24 18:37 208 21 gusting 30 2.8
2020-Jan-24 18:27 207 26 gusting 35 2.8
2020-Jan-24 17:57 208 23 gusting 32 2.2
2020-Jan-24 17:44 208 27 gusting 42 2.2
2020-Jan-24 17:34 208 28 gusting 37 2.2
2020-Jan-24 16:54 208 32 gusting 48 2.2
2020-Jan-24 16:44 208 21 gusting 30 2.2
2020-Jan-24 16:34 208 27 gusting 42 1.7
2020-Jan-24 16:24 208 42 gusting 58 2.2
2020-Jan-24 15:54 208 26 gusting 36 2.8
2020-Jan-24 15:44 208 30 gusting 42 2.2
2020-Jan-24 15:14 208 27 gusting 45 3.9
2020-Jan-24 15:04 209 25 gusting 35 3.3
2020-Jan-24 14:04 208 22 gusting 35 3.3
2020-Jan-24 13:34 208 33 gusting 45 2.2
2020-Jan-24 13:24 209 35 gusting 46 2.8
2020-Jan-24 13:04 208 28 gusting 41 3.9
2020-Jan-24 12:54 209 26 gusting 35 3.3
2020-Jan-24 12:44 209 26 gusting 36 2.8
2020-Jan-24 12:24 209 27 gusting 45 2.8
2020-Jan-24 11:44 209 25 gusting 32 3.3
2020-Jan-24 11:04 208 25 gusting 37 3.3
2020-Jan-24 10:44 208 33 gusting 45 4.4
2020-Jan-24 10:34 209 29 gusting 40 4.4
2020-Jan-24 10:24 208 28 gusting 37 4.4
2020-Jan-24 10:14 209 28 gusting 41 4.4
2020-Jan-24 10:04 209 26 gusting 42 3.9
2020-Jan-24 09:44 208 21 gusting 32 3.3
2020-Jan-24 09:34 208 25 gusting 43 3.9
2020-Jan-24 09:24 208 21 gusting 38 3.3
2020-Jan-24 09:14 209 19 gusting 29 3.3
2020-Jan-24 09:04 208 18 gusting 25 2.8
2020-Jan-24 08:44 209 26 gusting 46 3.9
2020-Jan-24 08:24 208 26 gusting 35 4.4
2020-Jan-24 08:14 209 24 gusting 34 4.4
2020-Jan-24 07:44 208 26 gusting 43 4.4
2020-Jan-24 07:34 208 24 gusting 39 4.4
2020-Jan-24 07:24 208 23 gusting 43 4.4
2020-Jan-24 07:14 208 16 gusting 25 3.9
2020-Jan-24 07:04 208 17 gusting 26 3.9
2020-Jan-24 06:54 208 26 gusting 42 3.9
2020-Jan-24 06:44 208 24 gusting 51 4.4
2020-Jan-24 06:04 208 25 gusting 32 5.0
2020-Jan-24 05:54 208 26 gusting 33 4.4
2020-Jan-24 05:44 208 18 gusting 26 4.4
2020-Jan-24 04:44 208 16 gusting 25 3.3
2020-Jan-24 04:24 175 24 gusting 70 4.4
2020-Jan-24 04:14 208 23 gusting 30 4.4
2020-Jan-24 04:04 208 26 gusting 39 4.4
2020-Jan-24 03:34 207 10 gusting 26 3.3
2020-Jan-24 03:24 207 8 gusting 13 3.3
2020-Jan-24 02:34 208 14 gusting 22 2.2
2020-Jan-24 02:24 208 21 gusting 33 2.2
2020-Jan-24 01:54 208 22 gusting 33 3.3
2020-Jan-24 01:34 208 15 gusting 29 4.4
2020-Jan-24 01:24 208 13 gusting 19 4.4
2020-Jan-24 01:14 208 14 gusting 22 4.4
2020-Jan-24 01:04 208 19 gusting 28 4.4
2020-Jan-24 00:44 208 18 gusting 28 4.4
2020-Jan-24 00:24 208 26 gusting 35 4.4
2020-Jan-24 00:14 208 28 gusting 45 5.0
2020-Jan-24 00:04 207 26 gusting 44 5.0
2020-Jan-23 23:54 208 22 gusting 36 5.6
2020-Jan-23 22:54 207 21 gusting 31 5.6
2020-Jan-23 22:44 208 23 gusting 32 5.6
2020-Jan-23 22:34 208 20 gusting 28 5.0
2020-Jan-23 22:04 208 16 gusting 23 4.4
2020-Jan-23 21:54 208 18 gusting 23 4.4
2020-Jan-23 21:44 207 19 gusting 26 4.4
2020-Jan-23 21:04 208 16 gusting 22 3.9
2020-Jan-23 20:54 207 15 gusting 21 3.9
2020-Jan-23 20:34 208 17 gusting 23 5.0
2020-Jan-23 20:24 208 21 gusting 28 5.0
2020-Jan-23 19:54 208 19 gusting 27 5.0
2020-Jan-23 19:34 208 19 gusting 26 5.0
2020-Jan-23 19:24 208 15 gusting 22 4.4
2020-Jan-23 19:14 208 18 gusting 27 4.4
2020-Jan-23 19:04 208 25 gusting 33 4.4
2020-Jan-23 18:54 208 27 gusting 44 5.0
2020-Jan-23 18:34 208 24 gusting 35 5.6
2020-Jan-23 18:04 207 18 gusting 25 5.0
2020-Jan-23 17:44 208 22 gusting 35 4.4
2020-Jan-23 17:14 208 22 gusting 30 6.1
2020-Jan-23 17:04 208 17 gusting 22 6.1
2020-Jan-23 16:34 208 18 gusting 23 6.1
2020-Jan-23 16:14 208 19 gusting 26 6.1
2020-Jan-23 16:04 208 23 gusting 32 6.1
2020-Jan-23 15:54 208 20 gusting 27 6.7
2020-Jan-23 15:34 208 22 gusting 30 6.7
2020-Jan-23 15:14 208 22 gusting 28 6.7
2020-Jan-23 14:54 209 24 gusting 33 6.7
2020-Jan-23 14:44 208 24 gusting 35 6.7
2020-Jan-23 14:24 208 25 gusting 35 6.7
2020-Jan-23 14:14 208 24 gusting 31 6.7
2020-Jan-23 13:44 208 23 gusting 31 6.7
2020-Jan-23 13:34 208 23 gusting 31 6.7
2020-Jan-23 13:04 208 26 gusting 34 6.7
2020-Jan-23 12:54 208 26 gusting 35 6.7
2020-Jan-23 12:44 208 27 gusting 35 7.2
2020-Jan-23 12:24 208 25 gusting 32 7.2
2020-Jan-23 11:54 208 29 gusting 40 7.2
2020-Jan-23 10:54 208 25 gusting 33 7.8
2020-Jan-23 10:44 209 24 gusting 32 7.8
2020-Jan-23 10:34 209 25 gusting 35 7.8
2020-Jan-23 10:24 208 25 gusting 34 7.8
2020-Jan-23 10:14 208 26 gusting 33 7.8
2020-Jan-23 10:04 208 26 gusting 38 7.8